Airfield :
LOGIN :

Register | Disclaimer

   EN    FR    IT 

 










Legend :    VFR   Marginal VFR   IFR   Intensive IFR   Very Intensive IFR
Visi :
Ceiling :
>= 8 km
>= 3000ft
5 to 8 km
1000 to 3000 ft
1500m to 5 km
500 to 1000 ft
800 to 1500m
200 to 500 ft
< 800m
< 200 ft
Symbols :   Thunderstorms  Fog  Heavy snow  Heavy precipitations  Wind > 20 kt
SIGMETs :     Misc.  Thunderstorms  Icing  Turbulence  Mountain Waves  Volcanic Ashes






- Airport Elevation : 160 ft
- IATA code : LRT


LFRH - Lorient Lann Bihoue

CURRENT METAR :
  • 080200Z AUTO 23014KT 9999 BKN006 OVC011 12/12 Q1013 TEMPO 1000 +DZ VV/// BECMG 22015G30KT

EXPIRED METARs :
  • 080130Z AUTO 23014KT 9999 BKN009 OVC014 12/11 Q1014
  • 080100Z AUTO 23015KT 9999 BKN009 OVC013 12/11 Q1014 TEMPO 1000 +DZ VV/// BECMG 22015G30KT
  • 080030Z AUTO 23015KT 9999 OVC013 12/10 Q1015 TEMPO 1000 +DZ VV/// BECMG 22015G30KT
  • 080000Z AUTO 23014KT 9999 BKN015 OVC020 12/10 Q1015 BECMG 22015G30KT 2000 RADZ BKN002 OVC005
  • 072330Z AUTO 23013KT 9999 BKN016 OVC021 12/10 Q1016 BECMG 22015G30KT 2000 RADZ BKN002 OVC005

TAF TAF LFRH
Valid from the 08 at 00:00 until the 09 at 00:00 UTC


072300Z 0800/0824 22015G30KT 9999 BKN012 OVC016
BECMG 0801/0803 2000 RADZ BKN002 OVC005
PROB40
TEMPO 0802/0805 1000 +DZ VV///
BECMG 0805/0808 27012KT 9999 NSW BKN020 BKN050
BECMG 0811/0814 27020G35KT
TEMPO 0815/0824 27025G40KT 4000 SHRA BKN015CB



MET'MAP, your aeronautical weather chart ! - Copyright ORBIFLY December 2007 - Disclaimer

ORBIFLY MET'MAP TEAM :

Programming & Development : Alexandra Zaïnal
Concept & original design : Baudouin d'Aumeries
Assistance for programming : Marc-Olivier Méhu
Technical & hardware support : Manuel Goepfert

Contact : metmap@orbifly.com




SOURCES & CREDITS :

   NOAA